Time;durP1;ratioP1;P1;durP2;ratioP2;P2;SDS_P1;SDS_P2;PMS_P1;PMS_P2;Temp;Humidity;BMP_temperature;BMP_pressure;BME280_temperature;BME280_humidity;BME280_pressure;Samples;Min_cycle;Max_cycle;Signal;HPM_P1;HPM_P2
2023/08/31 00:01:59;;;;;;;6.05;1.67;;;;;;;;;;5082056;28;20478;-75
2023/08/31 00:04:44;;;;;;;4.65;1.40;;;;;;;;;;5074957;28;20044;-75
2023/08/31 00:07:30;;;;;;;8.55;1.58;;;;;;;;;;5082145;28;20044;-75
2023/08/31 00:10:17;;;;;;;4.03;1.58;;;;;;;;;;5075557;28;20044;-75
2023/08/31 00:13:03;;;;;;;5.18;1.60;;;;;;;;;;5074863;28;20040;-75
2023/08/31 00:15:47;;;;;;;6.70;1.70;;;;;;;;;;5074990;28;20040;-75
2023/08/31 00:18:35;;;;;;;3.88;1.70;;;;;;;;;;5081693;28;20048;-76
2023/08/31 00:21:21;;;;;;;3.88;1.65;;;;;;;;;;5075202;28;20510;-75
2023/08/31 00:24:07;;;;;;;4.90;1.80;;;;;;;;;;5074829;28;20477;-76
2023/08/31 00:26:53;;;;;;;7.28;2.40;;;;;;;;;;5074863;28;20040;-75
2023/08/31 00:29:39;;;;;;;4.82;2.33;;;;;;;;;;5075024;28;20044;-75
2023/08/31 00:32:25;;;;;;;5.10;1.80;;;;;;;;;;5066288;28;20390;-75
2023/08/31 00:35:10;;;;;;;10.65;2.00;;;;;;;;;;5074817;28;20037;-75
2023/08/31 00:37:58;;;;;;;4.03;1.63;;;;;;;;;;5060111;28;20040;-74
2023/08/31 00:40:45;;;;;;;8.02;1.95;;;;;;;;;;5074989;28;20044;-75
2023/08/31 00:43:31;;;;;;;2.53;1.50;;;;;;;;;;5074508;28;20044;-75
2023/08/31 00:46:17;;;;;;;6.32;1.70;;;;;;;;;;5074810;28;20052;-74
2023/08/31 00:49:05;;;;;;;3.20;1.40;;;;;;;;;;5065920;28;20036;-74
2023/08/31 00:51:50;;;;;;;3.22;1.50;;;;;;;;;;5066305;28;20044;-75
2023/08/31 00:54:36;;;;;;;4.47;1.50;;;;;;;;;;5073564;28;20037;-75
2023/08/31 00:57:21;;;;;;;6.28;2.03;;;;;;;;;;5074000;28;20040;-74
2023/08/31 01:00:08;;;;;;;2.55;1.38;;;;;;;;;;5066105;28;20490;-74
2023/08/31 01:03:06;;;;;;;3.47;1.40;;;;;;;;;;5065811;28;20041;-76
2023/08/31 01:06:20;;;;;;;4.00;1.20;;;;;;;;;;5065771;28;20044;-75
2023/08/31 01:09:36;;;;;;;3.20;1.60;;;;;;;;;;5060364;28;20061;-75
2023/08/31 01:13:01;;;;;;;5.25;1.65;;;;;;;;;;5074137;28;20453;-76
2023/08/31 01:15:50;;;;;;;;;;;;;;;;;;5012590;28;20090;-74
2023/08/31 01:18:37;;;;;;;2.53;1.40;;;;;;;;;;5074125;28;20361;-75
2023/08/31 01:21:23;;;;;;;4.53;1.58;;;;;;;;;;5074444;28;20048;-76
2023/08/31 01:24:12;;;;;;;7.43;1.42;;;;;;;;;;5080451;28;20040;-75
2023/08/31 01:26:58;;;;;;;4.10;1.50;;;;;;;;;;5073931;28;20049;-76
2023/08/31 01:29:44;;;;;;;4.45;1.77;;;;;;;;;;5065234;28;20040;-76
2023/08/31 01:32:29;;;;;;;4.95;1.30;;;;;;;;;;5074007;28;20036;-76
2023/08/31 01:35:17;;;;;;;3.40;1.30;;;;;;;;;;5065190;28;20048;-75
2023/08/31 01:38:09;;;;;;;4.18;1.55;;;;;;;;;;5080286;28;20036;-76
2023/08/31 01:41:03;;;;;;;11.32;6.25;;;;;;;;;;5073460;28;20044;-76
2023/08/31 01:43:51;;;;;;;4.65;1.70;;;;;;;;;;5064977;28;20048;-75
2023/08/31 01:46:37;;;;;;;7.15;1.52;;;;;;;;;;5073281;28;20045;-75
2023/08/31 01:49:24;;;;;;;5.30;1.67;;;;;;;;;;5073268;28;20036;-75
2023/08/31 01:52:09;;;;;;;2.55;1.20;;;;;;;;;;5064964;28;20397;-75
2023/08/31 01:54:54;;;;;;;4.65;1.48;;;;;;;;;;5064782;28;20501;-76
2023/08/31 01:57:40;;;;;;;5.55;1.42;;;;;;;;;;5064866;28;20040;-75
2023/08/31 02:00:34;;;;;;;6.28;1.60;;;;;;;;;;5064865;28;20108;-75
2023/08/31 02:03:19;;;;;;;7.78;1.73;;;;;;;;;;5064698;28;20037;-75
2023/08/31 02:06:05;;;;;;;4.20;1.60;;;;;;;;;;5064230;28;20044;-76
2023/08/31 02:08:50;;;;;;;2.97;1.40;;;;;;;;;;5072881;28;20494;-76
2023/08/31 02:11:37;;;;;;;5.57;1.30;;;;;;;;;;5072722;28;20052;-76
2023/08/31 02:14:23;;;;;;;5.88;1.60;;;;;;;;;;5064503;28;20053;-75
2023/08/31 02:17:08;;;;;;;3.13;1.30;;;;;;;;;;5064489;28;20044;-75
2023/08/31 02:19:53;;;;;;;3.38;1.30;;;;;;;;;;5064380;28;20390;-75
2023/08/31 02:22:38;;;;;;;2.20;1.30;;;;;;;;;;5064525;28;20057;-76
2023/08/31 02:25:27;;;;;;;3.28;1.33;;;;;;;;;;5072427;28;20044;-76
2023/08/31 02:28:12;;;;;;;4.97;1.50;;;;;;;;;;5073012;28;20040;-75
2023/08/31 02:31:00;;;;;;;4.82;1.55;;;;;;;;;;5072665;28;20049;-75
2023/08/31 02:33:49;;;;;;;4.05;1.60;;;;;;;;;;5072903;28;20041;-75
2023/08/31 02:36:34;;;;;;;4.75;1.50;;;;;;;;;;5063989;28;20044;-75
2023/08/31 02:39:20;;;;;;;4.20;1.70;;;;;;;;;;5072442;28;20048;-76
2023/08/31 02:42:07;;;;;;;3.50;1.35;;;;;;;;;;5072692;28;20406;-76
2023/08/31 02:44:53;;;;;;;4.25;1.60;;;;;;;;;;5078981;28;20041;-76
2023/08/31 02:47:38;;;;;;;6.32;1.92;;;;;;;;;;5063802;28;20040;-76
2023/08/31 02:50:23;;;;;;;3.17;1.42;;;;;;;;;;5049775;28;20068;-76
2023/08/31 02:53:09;;;;;;;4.55;1.73;;;;;;;;;;5072565;28;20771;-75
2023/08/31 02:55:54;;;;;;;4.13;1.50;;;;;;;;;;5064123;28;20037;-76
2023/08/31 02:58:40;;;;;;;3.20;1.40;;;;;;;;;;5064202;28;20381;-74
2023/08/31 03:01:26;;;;;;;3.90;1.80;;;;;;;;;;5072051;28;20044;-74
2023/08/31 03:04:11;;;;;;;3.63;1.65;;;;;;;;;;5063564;28;20045;-75
2023/08/31 03:06:57;;;;;;;7.50;1.77;;;;;;;;;;5057240;28;20045;-76
2023/08/31 03:09:49;;;;;;;2.90;1.30;;;;;;;;;;5063982;28;20477;-75
2023/08/31 03:12:34;;;;;;;3.85;1.50;;;;;;;;;;5073271;28;20049;-75
2023/08/31 03:15:19;;;;;;;6.57;1.95;;;;;;;;;;5072136;28;20494;-74
2023/08/31 03:18:05;;;;;;;5.35;1.80;;;;;;;;;;5066663;28;20048;-74
2023/08/31 03:20:50;;;;;;;4.80;1.73;;;;;;;;;;5076089;28;20052;-75
2023/08/31 03:23:36;;;;;;;4.00;1.80;;;;;;;;;;5067589;28;20416;-76
2023/08/31 03:26:21;;;;;;;4.00;1.50;;;;;;;;;;5075885;28;20041;-75
2023/08/31 03:29:06;;;;;;;3.35;1.50;;;;;;;;;;5075813;28;20045;-75
2023/08/31 03:31:52;;;;;;;7.18;2.00;;;;;;;;;;5067507;28;20048;-76
2023/08/31 03:34:38;;;;;;;5.07;1.90;;;;;;;;;;5067344;28;20045;-75
2023/08/31 03:37:23;;;;;;;5.78;2.05;;;;;;;;;;5075665;28;20040;-74
2023/08/31 03:40:09;;;;;;;4.43;1.73;;;;;;;;;;5075673;28;20048;-75
2023/08/31 03:42:55;;;;;;;5.95;2.40;;;;;;;;;;5075786;28;20037;-75
2023/08/31 03:45:41;;;;;;;7.30;2.70;;;;;;;;;;5067031;28;20398;-74
2023/08/31 03:48:27;;;;;;;6.15;2.25;;;;;;;;;;5067040;28;20041;-74
2023/08/31 03:51:12;;;;;;;5.55;2.40;;;;;;;;;;5067178;28;20041;-75
2023/08/31 03:53:57;;;;;;;5.18;2.20;;;;;;;;;;5075410;28;20040;-75
2023/08/31 03:56:42;;;;;;;13.07;3.30;;;;;;;;;;5067169;28;20053;-76
2023/08/31 03:59:28;;;;;;;7.03;2.63;;;;;;;;;;5067295;28;20160;-75
2023/08/31 04:02:14;;;;;;;5.95;2.38;;;;;;;;;;5075294;28;20041;-75
2023/08/31 04:04:59;;;;;;;5.50;2.45;;;;;;;;;;5066540;28;20041;-75
2023/08/31 04:07:44;;;;;;;5.88;2.22;;;;;;;;;;5066759;28;20040;-75
2023/08/31 04:10:31;;;;;;;8.55;2.40;;;;;;;;;;5075085;28;20044;-75
2023/08/31 04:13:17;;;;;;;5.47;2.75;;;;;;;;;;5074724;28;20048;-75
2023/08/31 04:16:03;;;;;;;7.82;2.28;;;;;;;;;;5075294;28;20048;-75
2023/08/31 04:18:51;;;;;;;4.57;2.28;;;;;;;;;;5074917;28;20048;-75
2023/08/31 04:21:38;;;;;;;8.45;2.72;;;;;;;;;;5074986;28;20052;-75
2023/08/31 04:24:23;;;;;;;5.63;2.42;;;;;;;;;;5075042;28;20040;-75
2023/08/31 04:27:09;;;;;;;7.88;3.03;;;;;;;;;;5074955;28;20044;-75
2023/08/31 04:29:54;;;;;;;5.40;2.72;;;;;;;;;;5075144;28;20036;-75
2023/08/31 04:32:40;;;;;;;6.07;2.33;;;;;;;;;;5074722;28;20521;-75
2023/08/31 04:35:25;;;;;;;5.45;2.45;;;;;;;;;;5074605;28;20398;-74
2023/08/31 04:38:11;;;;;;;8.55;2.45;;;;;;;;;;5074211;28;20049;-76
2023/08/31 04:41:01;;;;;;;8.05;3.00;;;;;;;;;;5074951;28;20490;-75
2023/08/31 04:43:49;;;;;;;8.00;2.88;;;;;;;;;;5074250;28;20048;-75
2023/08/31 04:46:35;;;;;;;9.45;3.78;;;;;;;;;;5073924;28;20044;-74
2023/08/31 04:49:20;;;;;;;8.35;3.35;;;;;;;;;;5074203;28;20052;-75
2023/08/31 04:52:06;;;;;;;8.85;3.47;;;;;;;;;;5074651;28;20044;-76
2023/08/31 04:54:52;;;;;;;7.65;3.05;;;;;;;;;;5074403;28;20048;-75
2023/08/31 04:57:37;;;;;;;6.28;3.20;;;;;;;;;;5080969;28;20044;-75
2023/08/31 05:00:23;;;;;;;9.23;3.30;;;;;;;;;;5074042;28;20049;-75
2023/08/31 05:03:08;;;;;;;5.68;2.92;;;;;;;;;;5074246;28;20389;-75
2023/08/31 05:05:54;;;;;;;6.38;3.17;;;;;;;;;;5074038;28;20041;-75
2023/08/31 05:08:39;;;;;;;6.03;3.33;;;;;;;;;;5058907;28;20045;-75
2023/08/31 05:11:24;;;;;;;10.90;2.80;;;;;;;;;;5073717;28;20485;-75
2023/08/31 05:14:10;;;;;;;8.40;4.22;;;;;;;;;;5073623;28;20048;-74
2023/08/31 05:16:55;;;;;;;11.60;6.22;;;;;;;;;;5073784;28;20036;-74
2023/08/31 05:19:41;;;;;;;13.05;5.20;;;;;;;;;;5073828;28;20044;-75
2023/08/31 05:22:26;;;;;;;8.57;3.78;;;;;;;;;;5073730;28;20041;-76
2023/08/31 05:25:12;;;;;;;12.00;4.32;;;;;;;;;;5080401;28;20056;-73
2023/08/31 05:27:58;;;;;;;11.68;4.10;;;;;;;;;;5073775;28;20505;-76
2023/08/31 05:30:55;;;;;;;8.82;3.60;;;;;;;;;;5073734;28;20036;-75
2023/08/31 05:33:41;;;;;;;7.47;3.15;;;;;;;;;;5073488;28;20052;-75
2023/08/31 05:36:26;;;;;;;7.00;3.20;;;;;;;;;;5073435;28;20041;-75
2023/08/31 05:39:12;;;;;;;18.77;3.17;;;;;;;;;;5080058;28;20398;-75
2023/08/31 05:41:58;;;;;;;19.88;4.63;;;;;;;;;;5073445;28;20045;-75
2023/08/31 05:44:44;;;;;;;13.35;4.05;;;;;;;;;;5079993;28;20040;-76
2023/08/31 05:47:29;;;;;;;9.18;3.72;;;;;;;;;;5079954;28;20045;-76
2023/08/31 05:50:14;;;;;;;7.07;3.03;;;;;;;;;;5079667;28;20048;-75
2023/08/31 05:53:00;;;;;;;7.90;2.88;;;;;;;;;;5079998;28;20036;-75
2023/08/31 05:55:45;;;;;;;6.22;2.90;;;;;;;;;;5073405;28;20033;-75
2023/08/31 05:58:36;;;;;;;7.20;2.70;;;;;;;;;;5074322;28;20044;-75
2023/08/31 06:01:22;;;;;;;5.10;2.53;;;;;;;;;;5080952;28;20045;-76
2023/08/31 06:04:07;;;;;;;13.50;3.20;;;;;;;;;;5073676;28;20037;-76
2023/08/31 06:06:53;;;;;;;8.18;2.40;;;;;;;;;;5074044;28;20052;-75
2023/08/31 06:09:39;;;;;;;11.88;2.65;;;;;;;;;;5074198;28;20044;-75
2023/08/31 06:12:24;;;;;;;5.97;2.70;;;;;;;;;;5073609;28;20501;-75
2023/08/31 06:15:09;;;;;;;8.15;2.30;;;;;;;;;;5079695;28;20044;-76
2023/08/31 06:17:54;;;;;;;6.18;2.70;;;;;;;;;;5058353;28;20049;-75
2023/08/31 06:20:40;;;;;;;4.70;2.78;;;;;;;;;;5073899;28;20053;-75
2023/08/31 06:23:26;;;;;;;7.45;2.63;;;;;;;;;;5073425;28;20048;-75
2023/08/31 06:26:11;;;;;;;7.68;2.80;;;;;;;;;;5073756;28;20036;-76
2023/08/31 06:28:56;;;;;;;5.68;2.92;;;;;;;;;;5073648;28;20052;-74
2023/08/31 06:31:42;;;;;;;9.40;2.67;;;;;;;;;;5073634;28;20041;-74
2023/08/31 06:34:28;;;;;;;5.97;2.67;;;;;;;;;;5073493;28;20048;-75
2023/08/31 06:37:13;;;;;;;13.68;3.28;;;;;;;;;;5073349;28;20044;-74
2023/08/31 06:40:00;;;;;;;7.93;3.28;;;;;;;;;;5080103;28;20478;-75
2023/08/31 06:42:46;;;;;;;12.75;3.10;;;;;;;;;;5064808;28;20048;-75
2023/08/31 06:45:31;;;;;;;6.63;2.67;;;;;;;;;;5071608;28;20048;-75
2023/08/31 06:48:17;;;;;;;8.52;3.10;;;;;;;;;;5073703;28;20052;-75
2023/08/31 06:51:03;;;;;;;8.07;3.22;;;;;;;;;;5073180;28;20037;-75
2023/08/31 06:53:49;;;;;;;7.32;2.50;;;;;;;;;;5079090;28;20052;-76
2023/08/31 06:56:35;;;;;;;8.98;2.80;;;;;;;;;;5073218;28;20482;-74
2023/08/31 06:59:21;;;;;;;5.45;3.20;;;;;;;;;;5073439;28;20049;-75
2023/08/31 07:02:06;;;;;;;6.88;2.95;;;;;;;;;;5079964;28;20041;-75
2023/08/31 07:04:52;;;;;;;6.57;3.03;;;;;;;;;;5079996;28;20044;-74
2023/08/31 07:07:38;;;;;;;8.98;2.60;;;;;;;;;;5072940;28;20144;-76
2023/08/31 07:10:23;;;;;;;7.68;2.97;;;;;;;;;;5073225;28;20393;-75
2023/08/31 07:13:09;;;;;;;7.90;2.53;;;;;;;;;;5072868;28;20056;-75
2023/08/31 07:15:54;;;;;;;7.15;2.53;;;;;;;;;;5073161;28;20474;-74
2023/08/31 07:18:40;;;;;;;6.30;2.47;;;;;;;;;;5079843;28;20041;-74
2023/08/31 07:21:26;;;;;;;3.45;2.30;;;;;;;;;;5080052;28;20393;-75
2023/08/31 07:24:11;;;;;;;9.05;2.47;;;;;;;;;;5079955;28;20040;-76
2023/08/31 07:26:57;;;;;;;11.32;3.10;;;;;;;;;;5072989;28;20049;-76
2023/08/31 07:29:43;;;;;;;7.47;3.00;;;;;;;;;;5073304;28;20053;-74
2023/08/31 07:32:28;;;;;;;6.35;2.78;;;;;;;;;;5072829;28;20044;-73
2023/08/31 07:35:14;;;;;;;5.72;2.65;;;;;;;;;;5071507;28;20048;-74
2023/08/31 07:37:59;;;;;;;7.63;2.78;;;;;;;;;;5072189;28;20040;-74
2023/08/31 07:40:45;;;;;;;12.50;3.53;;;;;;;;;;5071813;28;20053;-74
2023/08/31 07:43:30;;;;;;;6.28;2.80;;;;;;;;;;5072558;28;20120;-74
2023/08/31 07:46:16;;;;;;;6.35;2.80;;;;;;;;;;5072215;28;20040;-74
2023/08/31 07:49:02;;;;;;;8.30;2.58;;;;;;;;;;5072889;28;20490;-76
2023/08/31 07:51:49;;;;;;;8.00;2.97;;;;;;;;;;5072936;28;20397;-74
2023/08/31 07:54:34;;;;;;;7.82;3.08;;;;;;;;;;5073549;28;20049;-77
2023/08/31 07:57:19;;;;;;;7.43;3.20;;;;;;;;;;5072807;28;20045;-78
2023/08/31 08:00:06;;;;;;;7.20;3.63;;;;;;;;;;5072642;28;20381;-77
2023/08/31 08:02:57;;;;;;;7.18;2.97;;;;;;;;;;5059800;28;20049;-76
2023/08/31 08:05:43;;;;;;;7.00;2.90;;;;;;;;;;5076459;28;20044;-76
2023/08/31 08:08:28;;;;;;;8.57;3.30;;;;;;;;;;5076297;28;20052;-77
2023/08/31 08:11:14;;;;;;;8.32;3.42;;;;;;;;;;5082082;28;20048;-76
2023/08/31 08:13:59;;;;;;;11.82;3.85;;;;;;;;;;5082906;28;20033;-76
2023/08/31 08:16:45;;;;;;;7.82;2.90;;;;;;;;;;5083244;28;20040;-76
2023/08/31 08:19:31;;;;;;;11.80;3.63;;;;;;;;;;5075818;28;20425;-76
2023/08/31 08:22:16;;;;;;;10.50;4.03;;;;;;;;;;5082940;28;20041;-75
2023/08/31 08:25:02;;;;;;;7.30;2.83;;;;;;;;;;5076392;28;20382;-75
2023/08/31 08:27:48;;;;;;;9.55;2.45;;;;;;;;;;5075759;28;20390;-75
2023/08/31 08:30:33;;;;;;;8.45;2.88;;;;;;;;;;5075678;28;20048;-74
2023/08/31 08:33:19;;;;;;;6.90;3.40;;;;;;;;;;5075511;28;20044;-74
2023/08/31 08:36:04;;;;;;;10.18;4.35;;;;;;;;;;5076109;28;20041;-74
2023/08/31 08:38:50;;;;;;;17.08;3.55;;;;;;;;;;5082502;28;20049;-74
2023/08/31 08:41:37;;;;;;;58.92;18.13;;;;;;;;;;5082420;28;20044;-74
2023/08/31 08:44:25;;;;;;;27.85;10.00;;;;;;;;;;5075448;28;20040;-74
2023/08/31 08:47:12;;;;;;;73.50;33.78;;;;;;;;;;5082000;28;20048;-75
2023/08/31 08:49:58;;;;;;;45.42;32.28;;;;;;;;;;5081704;28;20040;-74
2023/08/31 08:52:44;;;;;;;15.05;9.00;;;;;;;;;;5075504;28;20505;-74
2023/08/31 08:55:30;;;;;;;5.97;3.08;;;;;;;;;;5075394;28;20044;-75
2023/08/31 08:58:15;;;;;;;13.63;4.25;;;;;;;;;;5066830;28;20390;-75
2023/08/31 09:01:02;;;;;;;6.97;3.13;;;;;;;;;;5082071;28;20478;-75
2023/08/31 09:03:47;;;;;;;5.72;2.90;;;;;;;;;;5074855;28;20037;-74
2023/08/31 09:06:34;;;;;;;7.50;2.78;;;;;;;;;;5074472;28;20048;-75
2023/08/31 09:09:19;;;;;;;8.88;3.10;;;;;;;;;;5065556;28;20041;-75
2023/08/31 09:12:10;;;;;;;7.13;3.35;;;;;;;;;;5075010;28;20044;-75
2023/08/31 09:15:06;;;;;;;7.75;2.75;;;;;;;;;;5066072;28;20398;-75
2023/08/31 09:17:51;;;;;;;7.20;2.92;;;;;;;;;;5075001;28;20052;-75
2023/08/31 09:20:47;;;;;;;6.93;2.60;;;;;;;;;;5074875;28;20048;-75
2023/08/31 09:23:33;;;;;;;6.90;3.28;;;;;;;;;;5081341;28;20036;-75
2023/08/31 09:26:18;;;;;;;8.07;2.78;;;;;;;;;;5074622;28;20037;-76
2023/08/31 09:29:05;;;;;;;4.75;3.20;;;;;;;;;;5066170;28;20040;-75
2023/08/31 09:31:50;;;;;;;6.53;2.72;;;;;;;;;;5065258;28;20041;-75
2023/08/31 09:34:36;;;;;;;12.75;5.95;;;;;;;;;;5073959;28;20044;-76
2023/08/31 09:37:21;;;;;;;7.10;3.50;;;;;;;;;;5074264;28;20040;-75
2023/08/31 09:40:07;;;;;;;8.18;3.08;;;;;;;;;;5074653;28;20049;-73
2023/08/31 09:42:52;;;;;;;6.20;3.15;;;;;;;;;;5073416;28;20485;-74
2023/08/31 09:45:38;;;;;;;11.52;3.08;;;;;;;;;;5073546;28;20425;-75
2023/08/31 09:48:24;;;;;;;7.90;3.25;;;;;;;;;;5074630;28;20048;-76
2023/08/31 09:51:14;;;;;;;10.75;2.90;;;;;;;;;;5073847;28;20486;-76
2023/08/31 09:54:01;;;;;;;7.03;2.95;;;;;;;;;;5059040;28;20537;-76
2023/08/31 09:56:47;;;;;;;6.75;2.70;;;;;;;;;;5058865;28;20052;-76
2023/08/31 09:59:35;;;;;;;5.07;2.30;;;;;;;;;;5064917;28;20048;-74
2023/08/31 10:02:21;;;;;;;6.57;2.30;;;;;;;;;;5073672;28;20045;-75
2023/08/31 10:05:07;;;;;;;2.67;1.60;;;;;;;;;;5073669;28;20048;-75
2023/08/31 10:07:53;;;;;;;6.88;2.17;;;;;;;;;;5073934;28;20048;-76
2023/08/31 10:10:41;;;;;;;4.07;2.17;;;;;;;;;;5073636;28;20052;-76
2023/08/31 10:13:28;;;;;;;6.95;2.17;;;;;;;;;;5058772;28;20044;-76
2023/08/31 10:16:15;;;;;;;3.50;1.98;;;;;;;;;;5080128;28;20037;-74
2023/08/31 10:19:00;;;;;;;7.50;2.45;;;;;;;;;;5079318;28;20044;-75
2023/08/31 10:21:46;;;;;;;4.80;2.20;;;;;;;;;;5073621;28;20049;-75
2023/08/31 10:25:00;;;;;;;5.05;2.22;;;;;;;;;;5073315;28;20041;-75
2023/08/31 10:27:47;;;;;;;4.05;2.13;;;;;;;;;;5073874;28;20053;-75
2023/08/31 10:30:32;;;;;;;7.60;2.65;;;;;;;;;;5073668;28;20048;-75
2023/08/31 10:33:22;;;;;;;5.85;2.20;;;;;;;;;;5080033;28;20044;-74
2023/08/31 10:36:16;;;;;;;4.95;2.25;;;;;;;;;;5073574;28;20049;-75
2023/08/31 10:39:15;;;;;;;5.25;2.17;;;;;;;;;;5073853;28;20508;-75
2023/08/31 10:42:01;;;;;;;7.38;2.28;;;;;;;;;;5075641;28;20474;-74
2023/08/31 10:44:49;;;;;;;5.85;2.22;;;;;;;;;;5073246;28;20045;-75
2023/08/31 10:47:39;;;;;;;5.78;2.20;;;;;;;;;;5072000;28;20049;-74
2023/08/31 10:50:25;;;;;;;8.98;2.15;;;;;;;;;;5072601;28;20377;-74
2023/08/31 10:53:13;;;;;;;4.93;1.80;;;;;;;;;;5073140;28;20048;-74
2023/08/31 10:55:58;;;;;;;6.60;2.30;;;;;;;;;;5073405;28;20053;-74
2023/08/31 10:59:00;;;;;;;18.33;3.75;;;;;;;;;;5073247;28;20044;-74
2023/08/31 11:01:59;;;;;;;11.55;2.78;;;;;;;;;;5072808;28;20048;-73
2023/08/31 11:04:56;;;;;;;7.53;2.40;;;;;;;;;;5072701;28;20048;-74
2023/08/31 11:07:49;;;;;;;7.13;2.40;;;;;;;;;;5073040;28;20481;-74
2023/08/31 11:10:34;;;;;;;12.63;3.00;;;;;;;;;;5072700;28;20048;-73
2023/08/31 11:13:20;;;;;;;4.80;2.47;;;;;;;;;;5072704;28;20045;-73
2023/08/31 11:16:06;;;;;;;6.78;2.88;;;;;;;;;;5072782;28;20045;-73
2023/08/31 11:18:51;;;;;;;7.22;2.28;;;;;;;;;;5073231;28;20040;-73
2023/08/31 11:21:37;;;;;;;10.00;2.97;;;;;;;;;;5064736;28;20044;-72
2023/08/31 11:24:24;;;;;;;9.93;2.47;;;;;;;;;;5073060;28;20040;-73
2023/08/31 11:27:10;;;;;;;8.10;2.50;;;;;;;;;;5072697;28;20056;-74
2023/08/31 11:29:55;;;;;;;11.65;3.00;;;;;;;;;;5071989;28;20036;-74
2023/08/31 11:32:49;;;;;;;5.18;1.98;;;;;;;;;;5073079;28;20096;-74
2023/08/31 11:35:39;;;;;;;9.25;2.10;;;;;;;;;;5072899;28;20057;-74
2023/08/31 11:38:25;;;;;;;5.50;2.40;;;;;;;;;;5074935;28;20048;-74
2023/08/31 11:41:12;;;;;;;5.40;2.38;;;;;;;;;;5076861;28;20048;-74
2023/08/31 11:43:57;;;;;;;6.72;2.58;;;;;;;;;;5076615;28;20044;-74
2023/08/31 11:46:46;;;;;;;5.15;2.22;;;;;;;;;;5060952;28;20052;-73
2023/08/31 11:49:32;;;;;;;4.05;2.15;;;;;;;;;;5076363;28;20052;-74
2023/08/31 11:52:17;;;;;;;6.47;2.40;;;;;;;;;;5076316;28;20041;-74
2023/08/31 11:55:09;;;;;;;7.68;2.47;;;;;;;;;;5076342;28;20041;-75
2023/08/31 11:57:54;;;;;;;4.57;2.17;;;;;;;;;;5076572;28;20040;-75
2023/08/31 12:00:43;;;;;;;4.18;2.20;;;;;;;;;;5076010;28;20040;-74
2023/08/31 12:03:43;;;;;;;11.82;2.78;;;;;;;;;;5060607;28;20404;-73
2023/08/31 12:06:28;;;;;;;5.68;2.47;;;;;;;;;;5075989;28;20486;-73
2023/08/31 12:09:13;;;;;;;5.95;2.35;;;;;;;;;;5075756;28;20041;-73
2023/08/31 12:12:04;;;;;;;7.03;2.70;;;;;;;;;;5079502;28;20394;-74
2023/08/31 12:14:52;;;;;;;5.22;2.28;;;;;;;;;;5075753;28;20040;-73
2023/08/31 12:17:39;;;;;;;6.57;2.42;;;;;;;;;;5075795;28;20044;-74
2023/08/31 12:20:29;;;;;;;4.32;2.28;;;;;;;;;;5076048;28;20052;-74
2023/08/31 12:23:15;;;;;;;4.05;1.75;;;;;;;;;;5076457;28;20036;-74
2023/08/31 12:26:01;;;;;;;5.53;2.33;;;;;;;;;;5067329;28;20041;-74
2023/08/31 12:28:47;;;;;;;6.47;2.33;;;;;;;;;;5075489;28;20058;-74
2023/08/31 12:31:32;;;;;;;5.45;2.08;;;;;;;;;;5075662;28;20473;-74
2023/08/31 12:34:18;;;;;;;9.00;2.28;;;;;;;;;;5075966;28;20489;-73
2023/08/31 12:37:04;;;;;;;8.88;2.28;;;;;;;;;;5075458;28;20052;-74
2023/08/31 12:39:51;;;;;;;6.82;2.60;;;;;;;;;;5075109;28;20505;-74
2023/08/31 12:42:36;;;;;;;4.22;2.20;;;;;;;;;;5075767;28;20037;-73
2023/08/31 12:45:22;;;;;;;4.55;2.28;;;;;;;;;;5075372;28;20044;-72
2023/08/31 12:48:08;;;;;;;4.80;2.42;;;;;;;;;;5074885;28;20045;-73
2023/08/31 12:50:54;;;;;;;5.35;2.40;;;;;;;;;;5073984;28;20393;-73
2023/08/31 12:53:40;;;;;;;7.95;2.50;;;;;;;;;;5074178;28;20056;-75
2023/08/31 12:56:26;;;;;;;3.80;2.33;;;;;;;;;;5075150;28;20060;-74
2023/08/31 12:59:11;;;;;;;6.38;2.92;;;;;;;;;;5075048;28;20040;-74
2023/08/31 13:01:57;;;;;;;5.80;2.83;;;;;;;;;;5074736;28;20048;-74
2023/08/31 13:04:42;;;;;;;6.03;2.85;;;;;;;;;;5074442;28;20044;-73
2023/08/31 13:07:28;;;;;;;6.63;2.88;;;;;;;;;;5074177;28;20053;-73
2023/08/31 13:10:13;;;;;;;6.03;2.90;;;;;;;;;;5074220;28;20049;-73
2023/08/31 13:12:59;;;;;;;7.90;2.55;;;;;;;;;;5074813;28;20040;-74
2023/08/31 13:15:48;;;;;;;7.63;2.40;;;;;;;;;;5074658;28;20044;-73
2023/08/31 13:18:34;;;;;;;5.18;2.67;;;;;;;;;;5074805;28;20036;-74
2023/08/31 13:21:20;;;;;;;5.93;2.40;;;;;;;;;;5073999;28;20088;-73
2023/08/31 13:24:05;;;;;;;6.22;2.65;;;;;;;;;;5074518;28;20048;-74
2023/08/31 13:26:51;;;;;;;7.35;2.80;;;;;;;;;;5074222;28;20057;-74
2023/08/31 13:29:36;;;;;;;7.35;2.70;;;;;;;;;;5074518;28;20036;-74
2023/08/31 13:32:22;;;;;;;7.50;2.53;;;;;;;;;;5074330;28;20052;-75
2023/08/31 13:35:09;;;;;;;6.72;2.97;;;;;;;;;;5074332;28;20036;-73
2023/08/31 13:37:54;;;;;;;5.97;2.80;;;;;;;;;;5074923;28;20048;-73
2023/08/31 13:40:40;;;;;;;7.50;2.72;;;;;;;;;;5073780;28;20502;-74
2023/08/31 13:43:25;;;;;;;10.77;2.78;;;;;;;;;;5074294;28;20107;-73
2023/08/31 13:46:12;;;;;;;7.32;3.13;;;;;;;;;;5074370;28;20056;-75
2023/08/31 13:48:57;;;;;;;9.93;3.03;;;;;;;;;;5074340;28;20045;-73
2023/08/31 13:51:42;;;;;;;7.20;2.63;;;;;;;;;;5074132;28;20040;-73
2023/08/31 13:54:28;;;;;;;8.65;2.70;;;;;;;;;;5059172;28;20036;-74
2023/08/31 13:57:17;;;;;;;6.15;2.47;;;;;;;;;;5074004;28;20394;-75
2023/08/31 14:00:04;;;;;;;8.45;2.63;;;;;;;;;;5074387;28;20052;-74
2023/08/31 14:02:54;;;;;;;5.50;2.80;;;;;;;;;;5073431;28;20045;-74
2023/08/31 14:05:40;;;;;;;11.65;2.72;;;;;;;;;;5065601;28;20052;-74
2023/08/31 14:08:25;;;;;;;7.90;2.83;;;;;;;;;;5073908;28;20057;-74
2023/08/31 14:11:11;;;;;;;6.30;2.42;;;;;;;;;;5073874;28;20045;-73
2023/08/31 14:14:14;;;;;;;8.10;2.80;;;;;;;;;;5074414;28;20465;-73
2023/08/31 14:16:59;;;;;;;28.23;4.63;;;;;;;;;;5073133;28;20041;-76
2023/08/31 14:19:45;;;;;;;37.30;5.00;;;;;;;;;;5073419;28;20048;-75
2023/08/31 14:22:30;;;;;;;18.85;3.33;;;;;;;;;;5073744;28;20056;-74
2023/08/31 14:25:16;;;;;;;13.57;2.80;;;;;;;;;;5080029;28;20046;-75
2023/08/31 14:28:03;;;;;;;24.60;3.88;;;;;;;;;;5073474;28;20544;-74
2023/08/31 14:30:48;;;;;;;10.75;2.60;;;;;;;;;;5059071;28;20401;-76
2023/08/31 14:33:34;;;;;;;7.32;2.88;;;;;;;;;;5073989;28;20044;-74
2023/08/31 14:36:19;;;;;;;11.20;2.75;;;;;;;;;;5073495;28;20044;-74
2023/08/31 14:39:05;;;;;;;9.55;2.35;;;;;;;;;;5073378;28;20040;-74
2023/08/31 14:41:50;;;;;;;4.18;2.33;;;;;;;;;;5073650;28;20048;-74
2023/08/31 14:44:38;;;;;;;7.00;2.30;;;;;;;;;;5073559;28;20052;-74
2023/08/31 14:47:27;;;;;;;4.68;2.58;;;;;;;;;;5073359;28;20040;-75
2023/08/31 14:50:13;;;;;;;5.63;2.67;;;;;;;;;;5073586;28;20040;-76
2023/08/31 14:52:59;;;;;;;7.18;3.15;;;;;;;;;;5073693;28;20454;-75
2023/08/31 14:55:49;;;;;;;12.70;4.22;;;;;;;;;;5072995;28;20494;-73
2023/08/31 14:58:34;;;;;;;8.80;2.92;;;;;;;;;;5073002;28;20044;-75
2023/08/31 15:01:20;;;;;;;5.38;2.35;;;;;;;;;;5073479;28;20041;-75
2023/08/31 15:04:05;;;;;;;4.43;2.53;;;;;;;;;;5073347;28;20053;-75
2023/08/31 15:06:50;;;;;;;7.28;4.22;;;;;;;;;;5072687;28;20044;-75
2023/08/31 15:09:35;;;;;;;10.10;4.43;;;;;;;;;;5073658;28;20053;-75
2023/08/31 15:12:21;;;;;;;11.80;2.85;;;;;;;;;;5072915;28;20072;-75
2023/08/31 15:15:07;;;;;;;5.88;3.00;;;;;;;;;;5077871;28;20407;-74
2023/08/31 15:17:52;;;;;;;9.10;3.10;;;;;;;;;;5077263;28;20501;-74
2023/08/31 15:20:41;;;;;;;7.57;2.92;;;;;;;;;;5076878;28;20032;-74
2023/08/31 15:23:27;;;;;;;6.20;3.40;;;;;;;;;;5076808;28;20033;-74
2023/08/31 15:26:14;;;;;;;8.57;2.60;;;;;;;;;;5077100;28;20060;-74
2023/08/31 15:28:59;;;;;;;7.07;2.85;;;;;;;;;;5077454;28;20045;-73
2023/08/31 15:31:45;;;;;;;9.00;3.17;;;;;;;;;;5083903;28;20048;-73
2023/08/31 15:34:31;;;;;;;12.20;3.55;;;;;;;;;;5076746;28;20048;-74
2023/08/31 15:37:18;;;;;;;7.45;3.00;;;;;;;;;;5077437;28;20048;-75
2023/08/31 15:40:03;;;;;;;9.98;3.47;;;;;;;;;;5076995;28;20041;-74
2023/08/31 15:42:49;;;;;;;7.00;3.30;;;;;;;;;;5069037;28;20489;-75
2023/08/31 15:45:34;;;;;;;6.63;3.15;;;;;;;;;;5076642;28;20037;-75
2023/08/31 15:48:20;;;;;;;12.43;4.18;;;;;;;;;;5061513;28;20495;-74
2023/08/31 15:51:05;;;;;;;23.65;5.00;;;;;;;;;;5076602;28;20048;-74
2023/08/31 15:53:52;;;;;;;18.42;5.50;;;;;;;;;;5076784;28;20041;-74
2023/08/31 15:56:37;;;;;;;24.15;4.95;;;;;;;;;;5076462;28;20052;-74
2023/08/31 15:59:22;;;;;;;11.65;3.65;;;;;;;;;;5076683;28;20431;-74
2023/08/31 16:02:07;;;;;;;11.45;4.25;;;;;;;;;;5076544;28;20044;-74
2023/08/31 16:04:53;;;;;;;13.90;4.13;;;;;;;;;;5076762;28;20040;-74
2023/08/31 16:07:40;;;;;;;10.05;4.25;;;;;;;;;;5076026;28;20040;-76
2023/08/31 16:10:25;;;;;;;10.13;4.90;;;;;;;;;;5076091;28;20048;-74
2023/08/31 16:13:11;;;;;;;11.82;4.95;;;;;;;;;;5076199;28;20044;-75
2023/08/31 16:15:56;;;;;;;8.63;3.70;;;;;;;;;;5075922;28;20048;-75
2023/08/31 16:18:42;;;;;;;6.53;3.70;;;;;;;;;;5076411;28;20040;-75
2023/08/31 16:21:27;;;;;;;10.88;4.60;;;;;;;;;;5075872;28;20040;-75
2023/08/31 16:24:14;;;;;;;8.27;3.47;;;;;;;;;;5060887;28;20048;-74
2023/08/31 16:27:00;;;;;;;8.45;3.55;;;;;;;;;;5076611;28;20044;-75
2023/08/31 16:29:47;;;;;;;6.00;2.88;;;;;;;;;;5080465;28;20037;-74
2023/08/31 16:32:37;;;;;;;7.28;3.00;;;;;;;;;;5073952;28;20494;-74
2023/08/31 16:35:22;;;;;;;10.68;3.20;;;;;;;;;;5075541;28;20044;-74
2023/08/31 16:38:08;;;;;;;7.93;3.30;;;;;;;;;;5074056;28;20485;-74